createdAt,value
2022-11-29T00:01:25.203Z,57.80
2022-11-29T00:03:52.532Z,64.47
2022-11-29T00:06:22.134Z,67.07
2022-11-29T00:08:49.415Z,60.10
2022-11-29T00:11:39.445Z,63.08
2022-11-29T00:14:07.809Z,62.58
2022-11-29T00:16:34.297Z,63.03
2022-11-29T00:19:01.461Z,67.25
2022-11-29T00:21:27.841Z,63.90
2022-11-29T00:23:54.512Z,64.30
2022-11-29T00:26:21.446Z,63.80
2022-11-29T00:28:47.827Z,67.13
2022-11-29T00:31:20.034Z,66.80
2022-11-29T00:33:46.434Z,66.38
2022-11-29T00:36:14.063Z,71.53
2022-11-29T00:38:40.760Z,69.15
2022-11-29T00:41:07.683Z,62.83
2022-11-29T00:43:34.032Z,70.43
2022-11-29T00:46:00.514Z,67.13
2022-11-29T00:48:26.968Z,75.85
2022-11-29T00:50:53.627Z,81.68
2022-11-29T00:53:20.076Z,77.13
2022-11-29T00:55:49.986Z,88.35
2022-11-29T00:58:16.578Z,93.43
2022-11-29T01:00:43.094Z,92.93
2022-11-29T01:03:09.758Z,87.90
2022-11-29T01:05:36.109Z,70.32
2022-11-29T01:08:02.702Z,84.75
2022-11-29T01:10:29.096Z,80.47
2022-11-29T01:12:56.163Z,77.38
2022-11-29T01:15:22.610Z,80.53
2022-11-29T01:17:49.396Z,81.88
2022-11-29T01:20:16.290Z,82.82
2022-11-29T01:22:42.773Z,75.50
2022-11-29T01:25:12.150Z,80.45
2022-11-29T01:27:38.581Z,70.97
2022-11-29T01:30:07.114Z,80.88
2022-11-29T01:32:33.522Z,81.07
2022-11-29T01:34:59.834Z,73.80
2022-11-29T01:37:28.787Z,79.45
2022-11-29T01:39:55.282Z,86.13
2022-11-29T01:42:21.718Z,84.93
2022-11-29T01:45:18.969Z,71.55
2022-11-29T01:47:46.184Z,73.88
2022-11-29T01:50:13.249Z,76.50
2022-11-29T01:52:39.987Z,75.57
2022-11-29T01:55:07.555Z,87.63
2022-11-29T01:57:36.701Z,81.32
2022-11-29T02:00:13.913Z,79.75
2022-11-29T02:02:57.178Z,77.68
2022-11-29T02:05:25.296Z,76.88
2022-11-29T02:07:54.483Z,76.80
2022-11-29T02:10:30.799Z,67.20
2022-11-29T02:13:13.578Z,83.95
2022-11-29T02:15:50.261Z,74.28
2022-11-29T02:18:40.208Z,82.80
2022-11-29T02:21:13.368Z,72.88
2022-11-29T02:23:58.173Z,81.88
2022-11-29T02:27:02.361Z,76.00
2022-11-29T02:30:05.863Z,66.82
2022-11-29T02:32:49.740Z,69.47
2022-11-29T02:35:37.849Z,66.05
2022-11-29T02:38:36.751Z,64.28
2022-11-29T02:41:32.984Z,63.78
2022-11-29T02:44:40.013Z,77.38
2022-11-29T02:47:36.435Z,72.30
2022-11-29T02:50:40.993Z,69.38
2022-11-29T02:53:32.052Z,70.75
2022-11-29T02:56:20.570Z,69.97
2022-11-29T03:01:29.256Z,77.38
2022-11-29T03:04:23.447Z,63.83
2022-11-29T03:07:19.785Z,78.78
2022-11-29T03:10:20.457Z,76.78
2022-11-29T03:12:52.749Z,81.47
2022-11-29T03:15:43.900Z,69.75
2022-11-29T03:18:34.929Z,77.07
2022-11-29T03:21:12.485Z,70.30
2022-11-29T03:23:54.827Z,71.25
2022-11-29T03:26:29.577Z,74.90
2022-11-29T03:29:09.513Z,81.10
2022-11-29T03:31:46.449Z,78.50
2022-11-29T03:34:57.170Z,70.43
2022-11-29T03:37:38.374Z,83.63
2022-11-29T03:40:13.702Z,78.35
2022-11-29T03:43:01.563Z,86.82
2022-11-29T03:45:43.485Z,83.63
2022-11-29T03:48:20.323Z,80.65
2022-11-29T03:50:57.775Z,96.18
2022-11-29T03:53:47.204Z,78.47
2022-11-29T03:56:33.100Z,70.90
2022-11-29T03:59:24.319Z,91.93
2022-11-29T04:02:04.097Z,83.75
2022-11-29T04:04:44.871Z,84.97
2022-11-29T04:07:24.683Z,86.18
2022-11-29T04:10:13.532Z,81.43
2022-11-29T04:13:09.767Z,84.60
2022-11-29T04:15:36.220Z,83.13
2022-11-29T04:18:24.245Z,81.10
2022-11-29T04:21:18.632Z,77.20
2022-11-29T04:24:22.664Z,76.18
2022-11-29T04:27:20.444Z,80.88
2022-11-29T04:30:04.044Z,78.18
2022-11-29T04:32:43.816Z,90.30
2022-11-29T04:35:51.590Z,81.18
2022-11-29T04:38:41.390Z,103.55
2022-11-29T04:41:38.488Z,82.78
2022-11-29T04:44:19.207Z,81.68
2022-11-29T04:47:12.001Z,79.97
2022-11-29T04:50:09.279Z,81.47
2022-11-29T04:53:04.931Z,85.80
2022-11-29T04:55:41.851Z,82.60
2022-11-29T04:58:45.056Z,80.07
2022-11-29T05:01:23.280Z,79.30
2022-11-29T05:04:00.903Z,89.18
2022-11-29T05:07:17.447Z,80.43
2022-11-29T05:10:03.049Z,70.38
2022-11-29T05:13:11.120Z,75.45
2022-11-29T05:16:02.544Z,73.25
2022-11-29T05:19:11.586Z,71.72
2022-11-29T05:21:52.175Z,72.07
2022-11-29T05:24:46.325Z,71.13
2022-11-29T05:27:43.344Z,68.63
2022-11-29T05:30:16.742Z,68.50
2022-11-29T05:32:57.537Z,69.50
2022-11-29T05:35:39.024Z,71.18
2022-11-29T05:38:12.372Z,70.82
2022-11-29T05:40:53.714Z,79.43
2022-11-29T05:43:42.970Z,75.90
2022-11-29T05:46:13.829Z,76.25
2022-11-29T05:48:52.848Z,79.65
2022-11-29T05:51:44.546Z,82.30
2022-11-29T05:54:26.413Z,82.78
2022-11-29T05:57:08.150Z,88.72
2022-11-29T05:59:38.301Z,90.07
2022-11-29T06:02:25.836Z,103.88
2022-11-29T06:05:07.152Z,81.30
2022-11-29T06:07:48.217Z,98.97
2022-11-29T06:10:18.319Z,89.32
2022-11-29T06:13:11.364Z,103.03
2022-11-29T06:16:10.978Z,85.60
2022-11-29T06:19:25.488Z,95.05
2022-11-29T06:21:57.848Z,99.30
2022-11-29T06:24:39.124Z,83.30
2022-11-29T06:27:14.688Z,86.70
2022-11-29T06:30:02.851Z,79.82
2022-11-29T06:32:54.355Z,82.30
2022-11-29T06:35:45.647Z,87.38
2022-11-29T06:38:24.623Z,78.47
2022-11-29T06:40:51.545Z,87.18
2022-11-29T06:43:18.192Z,78.15
2022-11-29T06:45:55.888Z,92.22
2022-11-29T06:48:26.367Z,87.63
2022-11-29T06:51:20.615Z,88.45
2022-11-29T06:53:52.239Z,87.25
2022-11-29T06:56:34.575Z,81.18
2022-11-29T06:59:31.696Z,75.10
2022-11-29T07:02:05.772Z,110.00
2022-11-29T07:04:53.655Z,91.55
2022-11-29T07:07:22.214Z,91.38
2022-11-29T07:12:18.586Z,80.10
2022-11-29T07:14:45.849Z,79.50
2022-11-29T07:17:27.513Z,84.40
2022-11-29T07:20:41.114Z,92.20
2022-11-29T07:23:28.097Z,86.28
2022-11-29T07:26:08.412Z,112.35
2022-11-29T07:28:53.481Z,115.65
2022-11-29T07:31:57.135Z,101.70
2022-11-29T07:34:58.415Z,99.82
2022-11-29T07:37:27.790Z,98.30
2022-11-29T07:40:27.294Z,104.15
2022-11-29T07:43:35.048Z,88.60
2022-11-29T07:46:01.781Z,95.57
2022-11-29T07:48:28.211Z,84.55
2022-11-29T07:50:56.413Z,75.82
2022-11-29T07:53:23.584Z,81.82
2022-11-29T07:55:50.379Z,80.38
2022-11-29T07:58:18.307Z,90.60
2022-11-29T08:00:44.986Z,86.97
2022-11-29T08:03:11.608Z,78.03
2022-11-29T08:05:38.535Z,82.50
2022-11-29T08:08:06.313Z,71.05
2022-11-29T08:10:32.786Z,59.40
2022-11-29T08:12:59.093Z,67.88
2022-11-29T08:15:25.888Z,71.50
2022-11-29T08:17:53.299Z,79.57
2022-11-29T08:20:19.783Z,69.95
2022-11-29T08:22:54.215Z,86.72
2022-11-29T08:25:20.642Z,85.10
2022-11-29T08:27:46.957Z,67.25
2022-11-29T08:30:13.465Z,76.03
2022-11-29T08:32:39.856Z,87.25
2022-11-29T08:35:06.341Z,78.88
2022-11-29T08:37:32.724Z,93.00
2022-11-29T08:39:59.125Z,75.28
2022-11-29T08:42:25.545Z,87.40
2022-11-29T08:44:51.976Z,84.60
2022-11-29T08:47:36.721Z,78.15
2022-11-29T08:50:08.018Z,71.45
2022-11-29T08:52:58.261Z,60.17
2022-11-29T08:55:27.868Z,78.75
2022-11-29T08:58:00.190Z,64.13
2022-11-29T09:00:26.488Z,59.97
2022-11-29T09:02:52.849Z,59.42
2022-11-29T09:05:19.281Z,68.85
2022-11-29T09:07:46.857Z,59.42
2022-11-29T09:10:13.261Z,64.57
2022-11-29T09:12:40.261Z,56.72
2022-11-29T09:15:09.300Z,41.17
2022-11-29T09:17:35.811Z,52.42
2022-11-29T09:20:02.268Z,53.42
2022-11-29T09:22:28.650Z,51.08
2022-11-29T09:24:55.068Z,64.13
2022-11-29T09:27:21.419Z,60.47
2022-11-29T09:29:47.826Z,57.67
2022-11-29T09:32:14.163Z,59.78
2022-11-29T09:34:42.258Z,54.10
2022-11-29T09:37:08.786Z,56.13
2022-11-29T09:39:35.160Z,49.95
2022-11-29T09:42:46.321Z,48.28
2022-11-29T09:45:30.124Z,52.63
2022-11-29T09:48:30.966Z,45.08
2022-11-29T09:51:06.102Z,51.58
2022-11-29T09:53:46.425Z,55.40
2022-11-29T09:56:36.323Z,60.33
2022-11-29T09:59:21.482Z,49.90
2022-11-29T10:01:54.660Z,48.65
2022-11-29T10:04:27.494Z,48.15
2022-11-29T10:07:08.817Z,46.40
2022-11-29T10:09:48.170Z,57.70
2022-11-29T10:12:23.641Z,44.00
2022-11-29T10:14:57.578Z,44.83
2022-11-29T10:17:31.701Z,42.42
2022-11-29T10:20:10.364Z,40.97
2022-11-29T10:22:45.906Z,45.60
2022-11-29T10:25:21.707Z,49.33
2022-11-29T10:27:48.103Z,44.15
2022-11-29T10:30:16.244Z,43.55
2022-11-29T10:32:46.225Z,42.97
2022-11-29T10:35:18.227Z,40.15
2022-11-29T10:38:01.364Z,40.78
2022-11-29T10:40:34.890Z,43.40
2022-11-29T10:43:02.149Z,43.03
2022-11-29T10:45:38.816Z,47.40
2022-11-29T10:48:11.875Z,49.00
2022-11-29T10:50:41.753Z,48.25
2022-11-29T10:53:12.938Z,48.75
2022-11-29T10:55:45.574Z,40.20
2022-11-29T10:58:28.063Z,41.03
2022-11-29T11:01:08.836Z,36.22
2022-11-29T11:03:53.536Z,38.65
2022-11-29T11:06:25.553Z,32.20
2022-11-29T11:09:11.064Z,38.58
2022-11-29T11:11:38.677Z,32.38
2022-11-29T11:14:18.395Z,36.88
2022-11-29T11:16:44.926Z,40.60
2022-11-29T11:19:41.023Z,36.40
2022-11-29T11:22:19.009Z,35.38
2022-11-29T11:24:45.640Z,36.67
2022-11-29T11:27:12.185Z,33.75
2022-11-29T11:29:42.377Z,32.22
2022-11-29T11:32:17.252Z,27.00
2022-11-29T11:34:52.780Z,36.40
2022-11-29T11:37:28.343Z,34.33
2022-11-29T11:39:57.548Z,34.92
2022-11-29T11:42:38.561Z,34.55
2022-11-29T11:45:10.799Z,30.90
2022-11-29T11:47:49.361Z,32.92
2022-11-29T11:52:50.693Z,29.17
2022-11-29T11:55:39.306Z,23.13
2022-11-29T11:58:16.445Z,28.80
2022-11-29T12:01:03.402Z,28.00
2022-11-29T12:03:51.634Z,30.83
2022-11-29T12:06:39.484Z,31.13
2022-11-29T12:09:09.017Z,31.60
2022-11-29T12:11:47.900Z,27.25
2022-11-29T12:14:28.165Z,33.05
2022-11-29T12:17:03.796Z,32.13
2022-11-29T12:19:41.247Z,30.23
2022-11-29T12:22:13.563Z,27.83
2022-11-29T12:24:50.125Z,31.23
2022-11-29T12:27:16.585Z,32.05
2022-11-29T12:29:43.029Z,32.85
2022-11-29T12:32:44.745Z,32.17
2022-11-29T12:35:28.221Z,33.83
2022-11-29T12:38:10.636Z,32.33
2022-11-29T12:40:55.018Z,36.38
2022-11-29T12:43:49.405Z,31.17
2022-11-29T12:46:18.785Z,28.67
2022-11-29T12:49:20.541Z,35.17
2022-11-29T12:52:14.204Z,29.65
2022-11-29T12:54:47.897Z,33.22
2022-11-29T12:57:44.403Z,31.38
2022-11-29T13:00:14.826Z,33.40
2022-11-29T13:02:52.401Z,31.27
2022-11-29T13:05:52.969Z,33.23
2022-11-29T13:08:47.439Z,33.65
2022-11-29T13:11:37.377Z,27.20
2022-11-29T13:14:44.889Z,38.40
2022-11-29T13:17:39.539Z,34.10
2022-11-29T13:20:21.484Z,35.55
2022-11-29T13:23:16.846Z,29.67
2022-11-29T13:25:47.047Z,33.40
2022-11-29T13:28:36.285Z,35.28
2022-11-29T13:31:07.891Z,28.27
2022-11-29T13:33:53.992Z,32.80
2022-11-29T13:36:45.433Z,27.75
2022-11-29T13:39:29.778Z,30.13
2022-11-29T13:42:15.279Z,43.42
2022-11-29T13:45:03.999Z,31.50
2022-11-29T13:47:30.330Z,29.23
2022-11-29T13:50:05.365Z,29.70
2022-11-29T13:53:02.313Z,27.80
2022-11-29T13:55:29.504Z,31.40
2022-11-29T13:58:16.647Z,32.30
2022-11-29T14:00:44.015Z,35.40
2022-11-29T14:03:28.624Z,32.85
2022-11-29T14:06:10.108Z,31.60
2022-11-29T14:09:17.954Z,30.05
2022-11-29T14:11:49.164Z,32.10
2022-11-29T14:14:15.449Z,35.17
2022-11-29T14:16:41.744Z,33.00
2022-11-29T14:19:08.205Z,32.80
2022-11-29T14:21:59.151Z,34.95
2022-11-29T14:24:37.851Z,31.25
2022-11-29T14:27:07.370Z,34.33
2022-11-29T14:29:55.001Z,25.73
2022-11-29T14:32:28.577Z,28.33
2022-11-29T14:35:02.043Z,29.65
2022-11-29T14:37:55.387Z,32.88
2022-11-29T14:40:51.264Z,36.40
2022-11-29T14:43:37.951Z,33.10
2022-11-29T14:46:16.570Z,37.15
2022-11-29T14:48:56.523Z,30.58
2022-11-29T14:51:25.853Z,32.53
2022-11-29T14:54:13.365Z,34.40
2022-11-29T14:56:44.895Z,33.63
2022-11-29T14:59:49.311Z,32.45
2022-11-29T15:02:37.938Z,30.98
2022-11-29T15:05:21.343Z,31.10
2022-11-29T15:08:12.917Z,36.90
2022-11-29T15:10:42.944Z,32.90
2022-11-29T15:13:13.813Z,31.50
2022-11-29T15:15:52.300Z,38.85
2022-11-29T15:21:22.831Z,37.38
2022-11-29T15:24:01.404Z,40.13
2022-11-29T15:28:54.114Z,36.55
2022-11-29T15:31:21.268Z,39.15
2022-11-29T15:33:49.202Z,34.95
2022-11-29T15:36:21.319Z,32.42
2022-11-29T15:38:51.061Z,36.17
2022-11-29T15:41:28.977Z,34.22
2022-11-29T15:44:01.694Z,35.70
2022-11-29T15:46:30.457Z,35.40
2022-11-29T15:49:24.869Z,35.08
2022-11-29T15:51:58.729Z,33.75
2022-11-29T15:54:36.658Z,35.95
2022-11-29T15:57:11.480Z,35.60
2022-11-29T15:59:46.250Z,31.05
2022-11-29T16:02:27.818Z,33.35
2022-11-29T16:04:59.475Z,34.40
2022-11-29T16:07:31.990Z,36.15
2022-11-29T16:10:07.675Z,35.05
2022-11-29T16:12:34.180Z,37.17
2022-11-29T16:15:01.466Z,32.58
2022-11-29T16:17:31.040Z,29.00
2022-11-29T16:20:16.634Z,39.75
2022-11-29T16:22:43.067Z,34.22
2022-11-29T16:25:18.688Z,38.65
2022-11-29T16:27:46.089Z,40.05
2022-11-29T16:30:24.298Z,34.08
2022-11-29T16:32:55.409Z,46.17
2022-11-29T16:35:31.524Z,35.88
2022-11-29T16:37:57.996Z,39.85
2022-11-29T16:40:30.098Z,40.83
2022-11-29T16:43:08.412Z,41.53
2022-11-29T16:45:37.474Z,37.10
2022-11-29T16:48:22.087Z,44.75
2022-11-29T16:51:42.468Z,38.83
2022-11-29T16:54:26.309Z,39.45
2022-11-29T16:56:54.534Z,38.95
2022-11-29T16:59:27.301Z,41.60
2022-11-29T17:01:55.981Z,44.03
2022-11-29T17:04:23.924Z,44.72
2022-11-29T17:06:52.771Z,47.10
2022-11-29T17:09:33.047Z,45.80
2022-11-29T17:12:01.075Z,52.28
2022-11-29T17:14:31.449Z,46.50
2022-11-29T17:17:00.801Z,42.75
2022-11-29T17:19:28.930Z,42.13
2022-11-29T17:21:55.454Z,38.90
2022-11-29T17:24:23.155Z,41.17
2022-11-29T17:26:49.797Z,47.05
2022-11-29T17:29:17.490Z,45.80
2022-11-29T17:31:45.622Z,41.22
2022-11-29T17:34:12.219Z,45.58
2022-11-29T17:36:38.845Z,42.88
2022-11-29T17:39:05.394Z,38.35
2022-11-29T17:41:32.777Z,40.55
2022-11-29T17:43:59.997Z,39.65
2022-11-29T17:46:32.590Z,33.85
2022-11-29T17:49:01.230Z,39.58
2022-11-29T17:54:14.590Z,38.67
2022-11-29T17:56:40.983Z,41.20
2022-11-29T17:59:07.441Z,34.10
2022-11-29T18:01:35.784Z,38.35
2022-11-29T18:04:04.209Z,42.15
2022-11-29T18:06:34.901Z,43.97
2022-11-29T18:09:02.452Z,44.00
2022-11-29T18:11:43.254Z,38.95
2022-11-29T18:14:15.206Z,38.00
2022-11-29T18:16:41.921Z,40.95
2022-11-29T18:19:11.893Z,43.03
2022-11-29T18:21:38.321Z,44.10
2022-11-29T18:24:06.357Z,39.33
2022-11-29T18:26:34.329Z,42.25
2022-11-29T18:29:00.670Z,39.22
2022-11-29T18:31:29.913Z,37.58
2022-11-29T18:33:59.057Z,45.97
2022-11-29T18:36:28.269Z,40.42
2022-11-29T18:38:59.926Z,38.15
2022-11-29T18:41:29.025Z,38.72
2022-11-29T18:43:58.883Z,38.80
2022-11-29T18:46:26.213Z,35.63
2022-11-29T18:48:52.885Z,46.50
2022-11-29T18:51:20.345Z,39.40
2022-11-29T18:53:46.978Z,34.53
2022-11-29T18:56:22.364Z,37.63
2022-11-29T18:58:58.567Z,49.13
2022-11-29T19:01:30.499Z,42.70
2022-11-29T19:03:59.321Z,50.22
2022-11-29T19:06:30.825Z,43.17
2022-11-29T19:09:02.352Z,41.88
2022-11-29T19:11:31.265Z,45.00
2022-11-29T19:14:04.265Z,45.85
2022-11-29T19:16:32.780Z,51.92
2022-11-29T19:19:00.587Z,46.53
2022-11-29T19:21:29.117Z,47.08
2022-11-29T19:23:57.447Z,50.15
2022-11-29T19:26:27.481Z,47.03
2022-11-29T19:28:54.479Z,48.72
2022-11-29T19:31:25.374Z,54.00
2022-11-29T19:33:52.646Z,53.03
2022-11-29T19:36:21.584Z,46.28
2022-11-29T19:38:53.158Z,47.22
2022-11-29T19:41:24.525Z,45.60
2022-11-29T19:43:52.039Z,42.58
2022-11-29T19:46:30.770Z,43.22
2022-11-29T19:49:00.400Z,39.05
2022-11-29T19:51:28.948Z,45.80
2022-11-29T19:53:58.229Z,43.15
2022-11-29T19:56:24.952Z,44.50
2022-11-29T19:58:51.434Z,38.30
2022-11-29T20:01:25.035Z,43.90
2022-11-29T20:03:52.564Z,38.83
2022-11-29T20:06:19.655Z,38.67
2022-11-29T20:08:46.929Z,42.92
2022-11-29T20:11:18.941Z,35.55
2022-11-29T20:13:52.742Z,41.63
2022-11-29T20:16:19.377Z,46.50
2022-11-29T20:18:51.169Z,38.70
2022-11-29T20:21:21.383Z,37.40
2022-11-29T20:23:47.955Z,38.00
2022-11-29T20:26:19.820Z,33.10
2022-11-29T20:28:47.701Z,38.35
2022-11-29T20:31:17.528Z,39.42
2022-11-29T20:33:46.102Z,43.38
2022-11-29T20:36:33.672Z,33.05
2022-11-29T20:39:22.248Z,36.23
2022-11-29T20:41:54.601Z,35.22
2022-11-29T20:44:30.427Z,30.00
2022-11-29T20:46:57.049Z,30.70
2022-11-29T20:49:23.708Z,32.17
2022-11-29T20:51:58.655Z,27.63
2022-11-29T20:54:25.042Z,29.08
2022-11-29T20:56:51.452Z,32.45
2022-11-29T20:59:17.821Z,31.20
2022-11-29T21:01:44.159Z,29.63
2022-11-29T21:04:10.510Z,28.92
2022-11-29T21:06:39.407Z,32.05
2022-11-29T21:09:09.041Z,30.27
2022-11-29T21:11:35.698Z,28.92
2022-11-29T21:14:03.894Z,29.52
2022-11-29T21:16:31.851Z,34.00
2022-11-29T21:19:01.417Z,30.98
2022-11-29T21:21:37.340Z,32.75
2022-11-29T21:24:17.919Z,34.63
2022-11-29T21:26:50.705Z,31.52
2022-11-29T21:29:19.684Z,35.13
2022-11-29T21:31:48.316Z,33.45
2022-11-29T21:36:41.759Z,33.67
2022-11-29T21:39:12.331Z,35.22
2022-11-29T21:41:39.144Z,37.22
2022-11-29T21:44:07.530Z,38.58
2022-11-29T21:46:35.177Z,39.63
2022-11-29T21:49:01.601Z,39.03
2022-11-29T21:51:27.984Z,41.08
2022-11-29T21:53:54.534Z,36.05
2022-11-29T21:56:20.914Z,36.05
2022-11-29T21:58:47.301Z,41.15
2022-11-29T22:01:16.540Z,40.42
2022-11-29T22:03:43.656Z,42.65
2022-11-29T22:06:16.465Z,42.47
2022-11-29T22:08:42.806Z,43.03
2022-11-29T22:11:12.734Z,41.38
2022-11-29T22:14:01.205Z,36.67
2022-11-29T22:18:54.914Z,41.47
2022-11-29T22:21:21.333Z,44.53
2022-11-29T22:23:47.749Z,42.13
2022-11-29T22:26:14.604Z,38.30
2022-11-29T22:28:40.985Z,31.92
2022-11-29T22:31:11.904Z,31.05
2022-11-29T22:33:38.655Z,27.60
2022-11-29T22:36:12.947Z,28.27
2022-11-29T22:38:40.095Z,26.17
2022-11-29T22:41:11.700Z,24.25
2022-11-29T22:43:40.207Z,26.77
2022-11-29T22:46:21.738Z,25.67
2022-11-29T22:48:51.628Z,25.70
2022-11-29T22:51:44.136Z,25.77
2022-11-29T22:54:17.331Z,30.60
2022-11-29T22:56:45.314Z,28.52
2022-11-29T22:59:12.032Z,25.55
2022-11-29T23:01:41.054Z,24.05
2022-11-29T23:04:08.912Z,23.98
2022-11-29T23:06:43.207Z,24.60
2022-11-29T23:09:16.612Z,24.05
2022-11-29T23:11:44.923Z,24.13
2022-11-29T23:14:11.791Z,21.27
2022-11-29T23:16:38.172Z,24.30
2022-11-29T23:19:10.114Z,22.73
2022-11-29T23:21:38.917Z,31.70
2022-11-29T23:24:06.051Z,21.23
2022-11-29T23:26:42.505Z,24.00
2022-11-29T23:29:12.585Z,22.95
2022-11-29T23:31:39.338Z,23.65
2022-11-29T23:34:05.731Z,23.70
2022-11-29T23:36:32.157Z,22.88
2022-11-29T23:38:58.531Z,25.30
2022-11-29T23:41:24.919Z,24.48
2022-11-29T23:43:51.269Z,21.42
2022-11-29T23:46:23.131Z,23.55
2022-11-29T23:48:50.052Z,23.95
2022-11-29T23:51:17.593Z,24.83
2022-11-29T23:53:44.493Z,24.45
2022-11-29T23:56:13.894Z,26.35
2022-11-29T23:58:41.287Z,23.38
